Time;durP1;ratioP1;P1;durP2;ratioP2;P2;SDS_P1;SDS_P2;PMS_P1;PMS_P2;Temp;Humidity;BMP_temperature;BMP_pressure;BME280_temperature;BME280_humidity;BME280_pressure;Samples;Min_cycle;Max_cycle;Signal;HPM_P1;HPM_P2
2021/05/03 00:00:56;;;;;;;7.15;2.25;;;;;;;4.86;84.24;101682.66;6271778;28;20413;-77
2021/05/03 00:03:57;;;;;;;3.80;2.40;;;;;;;4.72;84.50;101673.28;6271636;28;20056;-77
2021/05/03 00:06:58;;;;;;;5.30;2.58;;;;;;;4.72;84.91;101675.03;6273321;28;20118;-77
2021/05/03 00:09:59;;;;;;;3.47;2.53;;;;;;;4.66;85.15;101672.53;6271766;28;20075;-76
2021/05/03 00:13:01;;;;;;;7.88;2.85;;;;;;;4.45;85.87;101684.97;6271326;28;20057;-77
2021/05/03 00:16:02;;;;;;;6.18;2.58;;;;;;;4.46;85.53;101681.47;6271388;28;20044;-76
2021/05/03 00:19:03;;;;;;;3.90;2.72;;;;;;;4.49;85.50;101686.63;6271412;28;20049;-76
2021/05/03 00:22:05;;;;;;;6.63;2.78;;;;;;;4.43;85.90;101683.25;6271651;28;20061;-77
2021/05/03 00:25:07;;;;;;;6.82;2.97;;;;;;;4.37;85.92;101693.75;6271074;28;20049;-76
2021/05/03 00:28:10;;;;;;;5.68;3.10;;;;;;;4.28;86.21;101686.91;6271279;28;20052;-75
2021/05/03 00:31:10;;;;;;;7.82;2.97;;;;;;;4.38;85.37;101691.13;6271340;28;20049;-76
2021/05/03 00:34:13;;;;;;;6.43;2.88;;;;;;;4.35;85.39;101693.75;6270820;28;20668;-76
2021/05/03 00:37:14;;;;;;;5.95;2.90;;;;;;;4.18;85.47;101693.97;6272252;28;20144;-76
2021/05/03 00:40:15;;;;;;;4.43;3.10;;;;;;;4.20;85.88;101688.75;6272746;28;20500;-76
2021/05/03 00:43:19;;;;;;;3.35;2.80;;;;;;;4.22;85.67;101690.44;6276218;28;20056;-76
2021/05/03 00:46:20;;;;;;;4.80;2.70;;;;;;;4.21;85.09;101700.88;6276514;28;20049;-76
2021/05/03 00:49:21;;;;;;;5.32;2.92;;;;;;;4.15;86.06;101694.00;6278485;28;20480;-76
2021/05/03 00:52:21;;;;;;;5.13;2.90;;;;;;;4.38;85.14;101700.66;6276189;28;20128;-76
2021/05/03 00:55:24;;;;;;;8.10;2.95;;;;;;;4.16;85.38;101700.91;6275600;28;20087;-76
2021/05/03 00:58:26;;;;;;;7.72;3.50;;;;;;;4.02;86.59;101703.69;6275751;28;20048;-76
2021/05/03 01:01:27;;;;;;;8.85;2.60;;;;;;;4.03;85.41;101704.53;6275752;28;20045;-76
2021/05/03 01:04:28;;;;;;;8.63;2.63;;;;;;;3.93;86.87;101701.16;6275546;28;20052;-76
2021/05/03 01:07:28;;;;;;;7.97;3.13;;;;;;;4.08;86.09;101701.00;6275848;28;20045;-76
2021/05/03 01:10:30;;;;;;;5.40;3.10;;;;;;;3.96;86.48;101701.16;6276027;28;20559;-76
2021/05/03 01:13:32;;;;;;;7.20;3.40;;;;;;;3.91;86.35;101700.34;6275276;28;20096;-76
2021/05/03 01:16:32;;;;;;;7.03;2.83;;;;;;;3.87;86.92;101703.00;6275620;28;20045;-76
2021/05/03 01:19:33;;;;;;;6.78;3.40;;;;;;;3.81;87.51;101698.69;6275275;28;20432;-76
2021/05/03 01:22:35;;;;;;;10.30;3.40;;;;;;;3.93;87.69;101702.91;6275174;28;20053;-76
2021/05/03 01:25:39;;;;;;;6.05;2.83;;;;;;;3.82;87.46;101695.22;6274942;28;20049;-76
2021/05/03 01:28:40;;;;;;;4.32;3.15;;;;;;;3.68;87.70;101700.56;6274940;28;20084;-76
2021/05/03 01:31:45;;;;;;;5.80;3.40;;;;;;;3.75;88.29;101701.34;6275166;28;20060;-75
2021/05/03 01:34:46;;;;;;;7.30;3.70;;;;;;;3.72;87.79;101699.63;6274626;28;20049;-76
2021/05/03 01:37:52;;;;;;;8.45;3.13;;;;;;;3.72;88.10;101699.63;6275006;28;20041;-76
2021/05/03 01:40:53;;;;;;;7.85;3.35;;;;;;;3.80;87.87;101705.63;6274711;28;20049;-76
2021/05/03 01:43:54;;;;;;;7.95;3.53;;;;;;;3.64;88.82;101695.41;6274994;28;20566;-75
2021/05/03 01:46:55;;;;;;;7.05;3.05;;;;;;;3.60;88.05;101697.19;6274671;28;20053;-76
2021/05/03 01:49:56;;;;;;;7.82;2.75;;;;;;;3.73;88.10;101709.19;6274859;28;20052;-76
2021/05/03 01:52:58;;;;;;;6.82;3.20;;;;;;;3.65;88.15;101702.34;6273927;28;20072;-76
2021/05/03 01:55:58;;;;;;;6.43;3.13;;;;;;;3.60;88.81;101712.78;6274571;28;20045;-76
2021/05/03 01:58:59;;;;;;;5.43;3.30;;;;;;;3.59;88.37;101705.84;6274559;28;20070;-76
2021/05/03 02:02:01;;;;;;;10.25;3.22;;;;;;;3.63;88.08;101704.91;6274332;28;20045;-75
2021/05/03 02:05:02;;;;;;;9.77;3.50;;;;;;;3.55;88.93;101705.00;6273956;28;20123;-76
2021/05/03 02:08:05;;;;;;;5.53;3.15;;;;;;;3.53;89.09;101705.88;6274286;28;20057;-76
2021/05/03 02:11:07;;;;;;;8.20;3.28;;;;;;;3.58;88.97;101705.84;6274476;28;20053;-76
2021/05/03 02:14:10;;;;;;;7.82;3.55;;;;;;;3.54;90.20;101715.41;6273654;28;20056;-76
2021/05/03 02:17:12;;;;;;;6.30;3.60;;;;;;;3.41;89.92;101708.63;6274046;28;20041;-76
2021/05/03 02:20:14;;;;;;;5.65;3.15;;;;;;;3.40;89.62;101712.06;6273817;28;20049;-76
2021/05/03 02:23:16;;;;;;;7.05;3.60;;;;;;;3.54;89.39;101705.91;6273703;28;20049;-76
2021/05/03 02:26:17;;;;;;;8.38;3.38;;;;;;;3.49;89.83;101712.00;6275129;28;20052;-76
2021/05/03 02:29:18;;;;;;;4.93;3.00;;;;;;;3.56;89.33;101706.72;6274290;28;20057;-76
2021/05/03 02:32:19;;;;;;;5.53;3.22;;;;;;;3.51;88.97;101708.50;6274426;28;20055;-75
2021/05/03 02:35:22;;;;;;;5.95;3.10;;;;;;;3.40;89.73;101706.88;6273213;28;20055;-75
2021/05/03 02:38:24;;;;;;;6.55;3.40;;;;;;;3.40;89.21;101712.06;6273645;28;20049;-75
2021/05/03 02:41:25;;;;;;;9.90;4.05;;;;;;;3.29;90.27;101719.94;6273586;28;20106;-75
2021/05/03 02:44:26;;;;;;;11.70;3.72;;;;;;;3.34;89.89;101725.97;6273208;28;20052;-76
2021/05/03 02:47:27;;;;;;;7.35;3.55;;;;;;;3.27;90.11;101721.69;6273512;28;20567;-77
2021/05/03 02:50:29;;;;;;;5.82;3.45;;;;;;;3.27;90.20;101719.97;6273711;28;20494;-77
2021/05/03 02:53:31;;;;;;;8.43;4.13;;;;;;;3.22;91.33;101721.72;6272904;28;20045;-76
2021/05/03 02:56:32;;;;;;;6.07;3.85;;;;;;;3.25;90.53;101719.09;6273040;28;20452;-77
2021/05/03 02:59:33;;;;;;;6.53;3.60;;;;;;;3.22;91.35;101716.53;6273053;28;20078;-76
2021/05/03 03:02:34;;;;;;;9.65;4.15;;;;;;;3.23;92.18;101718.28;6273169;28;20079;-76
2021/05/03 03:05:35;;;;;;;7.25;3.90;;;;;;;3.21;91.83;101720.00;6271991;28;20095;-77
2021/05/03 03:08:37;;;;;;;7.45;3.70;;;;;;;3.20;91.33;101720.03;6272633;28;20041;-77
2021/05/03 03:11:38;;;;;;;8.95;4.35;;;;;;;3.01;91.84;101714.97;6273008;28;20045;-77
2021/05/03 03:14:39;;;;;;;11.23;4.00;;;;;;;2.99;92.43;101710.63;6282736;23;20509;-76
2021/05/03 03:17:40;;;;;;;5.35;3.30;;;;;;;2.95;92.73;101729.69;6247952;28;20041;-77
2021/05/03 03:20:41;;;;;;;9.68;3.92;;;;;;;2.93;92.58;101732.31;6247729;28;20058;-76
2021/05/03 03:23:43;;;;;;;6.10;3.50;;;;;;;2.92;92.11;101729.72;6247759;28;20072;-77
2021/05/03 03:26:44;;;;;;;7.72;4.35;;;;;;;2.92;92.42;101737.53;6248552;28;20486;-77
2021/05/03 03:29:44;;;;;;;7.53;4.03;;;;;;;2.90;91.95;101729.72;6248827;28;20045;-77
2021/05/03 03:32:46;;;;;;;9.35;4.43;;;;;;;2.90;92.47;101739.25;6248582;28;20124;-78
2021/05/03 03:35:46;;;;;;;8.70;4.47;;;;;;;2.92;92.47;101732.31;6247698;28;20046;-77
2021/05/03 03:38:48;;;;;;;11.63;4.47;;;;;;;2.89;92.24;101740.97;6248487;28;20069;-77
2021/05/03 03:41:49;;;;;;;9.00;4.55;;;;;;;2.88;92.00;101738.41;6248046;28;20049;-77
2021/05/03 03:44:50;;;;;;;7.05;4.40;;;;;;;2.78;92.85;101737.59;6247869;28;20055;-77
2021/05/03 03:47:52;;;;;;;6.78;4.40;;;;;;;2.76;92.34;101732.41;6247862;28;20076;-77
2021/05/03 03:50:53;;;;;;;8.52;4.60;;;;;;;2.75;93.04;101740.19;6248038;28;20052;-77
2021/05/03 03:53:55;;;;;;;7.78;4.55;;;;;;;2.77;92.83;101738.44;6247634;28;20045;-77
2021/05/03 03:56:56;;;;;;;12.35;4.55;;;;;;;2.76;92.45;101734.13;6248069;28;20045;-77
2021/05/03 03:59:58;;;;;;;12.10;4.28;;;;;;;2.75;92.48;101738.47;6248310;28;20079;-77
2021/05/03 04:02:59;;;;;;;7.53;4.30;;;;;;;2.75;92.89;101741.06;6247684;28;20497;-77
2021/05/03 04:06:14;;;;;;;9.45;4.20;;;;;;;2.76;93.17;101736.72;6247599;28;20050;-77
2021/05/03 04:09:24;;;;;;;10.95;4.10;;;;;;;2.68;92.94;101739.38;6247618;28;20052;-76
2021/05/03 04:12:40;;;;;;;7.20;4.07;;;;;;;2.65;93.39;101741.97;6247433;28;20414;-76
2021/05/03 04:25:40;;;;;;;8.85;4.55;;;;;;;2.63;93.25;101742.84;6247092;28;20057;-77
2021/05/03 04:28:41;;;;;;;7.97;5.30;;;;;;;2.58;92.80;101750.66;6247596;28;20045;-77
2021/05/03 04:31:42;;;;;;;9.98;4.85;;;;;;;2.68;93.07;101743.69;6247370;28;20083;-77
2021/05/03 04:34:42;;;;;;;7.10;5.10;;;;;;;2.72;92.94;101750.59;6247174;28;20092;-77
2021/05/03 04:37:43;;;;;;;12.85;5.90;;;;;;;2.80;92.37;101754.00;6247246;28;20045;-77
2021/05/03 04:40:46;;;;;;;10.38;5.30;;;;;;;2.82;92.77;101749.69;6247151;28;20052;-77
2021/05/03 04:43:47;;;;;;;8.60;5.10;;;;;;;2.80;93.23;101746.22;6246687;28;20088;-77
2021/05/03 04:46:48;;;;;;;10.68;5.28;;;;;;;2.86;92.88;101754.00;6247653;28;20079;-77
2021/05/03 04:49:49;;;;;;;10.35;5.70;;;;;;;2.95;93.16;101760.84;6247398;28;20129;-77
2021/05/03 04:52:49;;;;;;;12.40;6.07;;;;;;;2.99;92.23;101762.56;6247444;28;20045;-77
2021/05/03 04:55:51;;;;;;;12.57;5.55;;;;;;;2.96;92.63;101762.59;6247178;28;20056;-77
2021/05/03 04:58:52;;;;;;;14.38;5.25;;;;;;;3.06;92.46;101759.06;6247147;28;20049;-77
2021/05/03 05:01:53;;;;;;;14.63;5.55;;;;;;;3.11;92.19;101766.84;6247085;28;20515;-77
2021/05/03 05:04:54;;;;;;;8.48;5.10;;;;;;;3.11;92.60;101759.91;6246649;28;20449;-77
2021/05/03 05:07:55;;;;;;;9.93;4.97;;;;;;;3.20;92.59;101751.19;6247254;28;20045;-76
2021/05/03 05:10:57;;;;;;;7.93;5.15;;;;;;;3.21;93.10;101758.09;6246889;28;20423;-77
2021/05/03 05:13:58;;;;;;;12.15;5.85;;;;;;;3.31;92.51;101762.34;6246808;28;20057;-78
2021/05/03 05:16:59;;;;;;;15.27;5.45;;;;;;;3.38;91.00;101760.59;6246863;28;20472;-77
2021/05/03 05:20:01;;;;;;;10.15;5.05;;;;;;;3.40;91.24;101766.63;6247049;28;20053;-77
2021/05/03 05:23:03;;;;;;;8.23;5.30;;;;;;;3.41;91.70;101764.03;6246722;28;20045;-77
2021/05/03 05:26:07;;;;;;;15.98;5.40;;;;;;;3.46;91.05;101771.78;6246455;28;20402;-76
2021/05/03 05:29:08;;;;;;;9.30;5.40;;;;;;;3.52;91.68;101767.41;6250700;28;20100;-76
2021/05/03 05:32:09;;;;;;;11.57;4.95;;;;;;;3.59;91.10;101751.75;6251025;28;20106;-77
2021/05/03 05:35:10;;;;;;;10.02;5.70;;;;;;;3.62;90.36;101754.31;6250779;28;20128;-77
2021/05/03 05:38:11;;;;;;;12.15;5.80;;;;;;;3.66;91.28;101746.50;6251125;28;20068;-77
2021/05/03 05:41:14;;;;;;;8.38;5.50;;;;;;;3.74;90.88;101747.28;6251370;28;20087;-76
2021/05/03 05:44:16;;;;;;;10.77;5.60;;;;;;;3.88;91.05;101749.75;6250899;28;20053;-77
2021/05/03 05:47:17;;;;;;;21.77;10.80;;;;;;;4.05;89.77;101757.41;6250925;28;20041;-77
2021/05/03 05:50:17;;;;;;;11.07;5.45;;;;;;;4.22;89.65;101757.22;6250543;28;20053;-76
2021/05/03 05:53:18;;;;;;;10.00;5.65;;;;;;;4.42;89.12;101763.06;6250380;28;20480;-77
2021/05/03 05:56:20;;;;;;;10.02;5.25;;;;;;;4.58;87.78;101755.94;6250596;28;20049;-77
2021/05/03 05:59:21;;;;;;;9.65;4.20;;;;;;;4.94;86.77;101757.19;6250459;28;20081;-77
2021/05/03 06:02:22;;;;;;;15.07;4.65;;;;;;;4.75;87.61;101767.00;6268926;28;20532;-77
2021/05/03 06:05:24;;;;;;;9.88;4.90;;;;;;;4.65;88.24;101764.53;6274628;28;20052;-76
2021/05/03 06:08:25;;;;;;;8.15;4.72;;;;;;;4.67;87.83;101763.63;6274489;28;20045;-77
2021/05/03 06:11:27;;;;;;;10.35;4.65;;;;;;;4.69;88.38;101761.88;6274321;28;20493;-76
2021/05/03 06:14:28;;;;;;;13.88;5.63;;;;;;;4.75;88.37;101761.78;6272583;28;20056;-77
2021/05/03 06:17:29;;;;;;;10.02;4.75;;;;;;;4.82;88.58;101759.97;6272779;28;20072;-75
2021/05/03 06:20:30;;;;;;;12.85;5.32;;;;;;;4.77;88.43;101767.00;6273226;28;20052;-77
2021/05/03 06:23:31;;;;;;;7.50;4.07;;;;;;;4.84;88.61;101773.81;6275283;28;20049;-76
2021/05/03 06:26:33;;;;;;;8.55;4.25;;;;;;;4.87;89.08;101771.19;6272894;28;20128;-77
2021/05/03 06:29:34;;;;;;;8.18;4.63;;;;;;;4.86;90.63;101784.22;6273512;28;20048;-79
2021/05/03 06:32:34;;;;;;;10.65;4.13;;;;;;;4.81;91.40;101785.16;6271782;28;20448;-76
2021/05/03 06:35:35;;;;;;;10.27;4.82;;;;;;;4.72;93.35;101780.03;6272205;28;20041;-77
2021/05/03 06:38:36;;;;;;;9.80;4.10;;;;;;;4.82;94.59;101786.03;6273091;28;20045;-77
2021/05/03 06:41:38;;;;;;;11.05;5.10;;;;;;;4.78;95.76;101785.19;6274321;28;20053;-76
2021/05/03 06:44:40;;;;;;;11.23;4.82;;;;;;;4.53;97.43;101784.63;6273331;28;20045;-78
2021/05/03 06:47:41;;;;;;;10.32;4.53;;;;;;;4.45;96.90;101788.19;6270002;28;20053;-75
2021/05/03 06:50:45;;;;;;;7.97;5.35;;;;;;;4.32;99.66;101785.72;6247426;28;20057;-74
2021/05/03 06:53:45;;;;;;;10.70;4.97;;;;;;;4.29;100.00;101790.09;6248142;28;20045;-76
2021/05/03 06:56:47;;;;;;;13.20;6.43;;;;;;;4.32;100.00;101793.53;6248290;28;20055;-76
2021/05/03 06:59:48;;;;;;;9.52;5.15;;;;;;;4.22;100.00;101797.09;6248277;28;20052;-76
2021/05/03 07:02:49;;;;;;;7.63;5.03;;;;;;;4.20;100.00;101800.59;6249254;28;20049;-78
2021/05/03 07:05:50;;;;;;;11.23;5.22;;;;;;;4.23;100.00;101797.97;6249270;28;20554;-78
2021/05/03 07:08:51;;;;;;;12.88;5.78;;;;;;;4.12;100.00;101792.00;6249666;28;20124;-77
2021/05/03 07:11:54;;;;;;;12.48;5.82;;;;;;;4.12;100.00;101797.22;6249527;28;20081;-78
2021/05/03 07:14:55;;;;;;;14.32;5.85;;;;;;;4.35;100.00;101800.44;6248966;28;20049;-78
2021/05/03 07:17:56;;;;;;;9.88;5.57;;;;;;;4.20;100.00;101798.00;6248473;28;20589;-79
2021/05/03 07:20:57;;;;;;;10.18;5.97;;;;;;;4.26;100.00;101793.59;6248838;28;20046;-78
2021/05/03 07:23:58;;;;;;;9.98;6.07;;;;;;;4.41;100.00;101789.13;6248459;28;20049;-77
2021/05/03 07:27:00;;;;;;;14.65;6.90;;;;;;;4.41;100.00;101789.13;6248669;28;20045;-77
2021/05/03 07:30:01;;;;;;;11.48;7.30;;;;;;;4.35;100.00;101790.03;6247675;28;20057;-77
2021/05/03 07:33:03;;;;;;;11.50;7.28;;;;;;;4.38;100.00;101787.41;6246757;28;20053;-78
2021/05/03 07:36:05;;;;;;;12.77;6.60;;;;;;;4.46;100.00;101779.53;6248771;28;20045;-78
2021/05/03 07:39:06;;;;;;;11.75;6.82;;;;;;;4.51;100.00;101777.72;6248464;28;20076;-78
2021/05/03 07:42:08;;;;;;;12.07;7.45;;;;;;;4.71;100.00;101777.47;6248346;28;20087;-78
2021/05/03 07:45:11;;;;;;;15.25;8.05;;;;;;;4.79;100.00;101770.44;6245374;28;20412;-80
2021/05/03 07:48:12;;;;;;;12.93;7.55;;;;;;;4.90;100.00;101768.53;6248979;28;20052;-80
2021/05/03 07:51:13;;;;;;;18.80;8.65;;;;;;;4.92;100.00;101763.31;6244724;28;20494;-81
2021/05/03 07:54:15;;;;;;;11.02;7.72;;;;;;;5.06;100.00;101753.56;6254177;28;20152;-78
2021/05/03 07:57:17;;;;;;;15.38;7.68;;;;;;;5.17;100.00;101749.03;6234452;28;20044;-80
2021/05/03 08:00:19;;;;;;;13.07;8.70;;;;;;;5.27;100.00;101744.59;6250351;28;20050;-77
2021/05/03 08:03:20;;;;;;;20.60;9.13;;;;;;;5.48;100.00;101746.81;6247896;28;20578;-79
2021/05/03 08:06:22;;;;;;;17.02;8.85;;;;;;;5.46;100.00;101732.97;6247420;28;20045;-79
2021/05/03 08:09:22;;;;;;;14.38;8.40;;;;;;;5.54;100.00;101738.03;6240069;28;20042;-72
2021/05/03 08:12:24;;;;;;;12.20;8.40;;;;;;;5.63;100.00;101739.63;6240512;28;20088;-79
2021/05/03 08:15:26;;;;;;;15.15;8.68;;;;;;;5.63;100.00;101724.00;6245100;28;20180;-81
2021/05/03 08:18:26;;;;;;;17.17;9.10;;;;;;;5.93;100.00;101723.47;6248985;28;20050;-79
2021/05/03 08:21:27;;;;;;;16.75;8.35;;;;;;;5.90;100.00;101720.88;6271127;28;20489;-79
2021/05/03 08:24:28;;;;;;;18.73;9.27;;;;;;;5.96;100.00;101726.03;6270383;28;20049;-77
2021/05/03 08:27:30;;;;;;;13.13;9.02;;;;;;;5.87;100.00;101722.72;6273255;28;20049;-81
2021/05/03 08:30:31;;;;;;;16.52;8.85;;;;;;;5.92;100.00;101724.38;6274062;28;20099;-81
2021/05/03 08:33:32;;;;;;;14.70;8.43;;;;;;;6.13;100.00;101717.88;6273790;28;20049;-79
2021/05/03 08:36:34;;;;;;;14.13;8.65;;;;;;;6.24;100.00;101717.69;6282314;28;20079;-80
2021/05/03 08:39:35;;;;;;;14.95;9.20;;;;;;;6.35;100.00;101710.50;6287161;28;20049;-80
2021/05/03 08:42:37;;;;;;;15.85;8.10;;;;;;;6.44;100.00;101712.06;6292961;28;20072;-81
2021/05/03 08:45:39;;;;;;;13.05;7.75;;;;;;;6.65;98.97;101705.53;6271077;28;20038;-80
2021/05/03 08:48:46;;;;;;;10.57;7.82;;;;;;;6.81;96.22;101718.22;6269799;28;20038;-85
2021/05/03 08:51:51;;;;;;;15.50;7.13;;;;;;;6.97;92.17;101705.66;6259665;28;20071;-71
2021/05/03 08:54:53;;;;;;;9.20;6.40;;;;;;;7.10;92.40;101707.09;6250586;28;20489;-82
2021/05/03 08:57:59;;;;;;;10.38;6.70;;;;;;;7.22;93.60;101697.25;6249836;28;20053;-78
2021/05/03 09:01:00;;;;;;;13.60;7.47;;;;;;;7.13;93.24;101698.34;6250058;28;20049;-80
2021/05/03 09:04:02;;;;;;;14.15;6.90;;;;;;;7.09;91.26;101688.84;6254708;28;20394;-80
2021/05/03 09:07:11;;;;;;;8.85;5.90;;;;;;;7.20;90.04;101693.81;6255306;28;20494;-79
2021/05/03 09:10:14;;;;;;;10.30;5.57;;;;;;;7.14;85.64;101691.38;6269993;28;20041;-77
2021/05/03 09:13:16;;;;;;;11.23;5.30;;;;;;;7.37;84.67;101686.44;6279349;28;20475;-76
2021/05/03 09:16:23;;;;;;;8.55;5.43;;;;;;;7.29;85.14;101681.38;6294417;22;20048;-77
2021/05/03 09:19:24;;;;;;;12.88;6.25;;;;;;;7.21;87.38;101679.84;6266835;28;20120;-76
2021/05/03 09:22:27;;;;;;;10.35;6.13;;;;;;;7.58;79.38;101679.78;6274926;28;20056;-75
2021/05/03 09:25:30;;;;;;;11.48;6.70;;;;;;;7.50;81.59;101681.75;6274852;28;20045;-78
2021/05/03 09:28:32;;;;;;;9.35;6.07;;;;;;;7.58;78.85;101679.78;6276126;28;20179;-77
2021/05/03 09:31:35;;;;;;;12.02;7.10;;;;;;;7.48;80.97;101671.31;6275701;28;20513;-78
2021/05/03 09:34:38;;;;;;;15.20;8.43;;;;;;;7.79;80.47;101671.38;6291697;28;20049;-76
2021/05/03 09:37:39;;;;;;;13.93;8.10;;;;;;;7.45;81.71;101667.91;6300044;28;20041;-79
2021/05/03 09:40:40;;;;;;;13.23;7.88;;;;;;;7.45;83.01;101667.91;6300147;28;20102;-78
2021/05/03 09:43:44;;;;;;;9.85;7.35;;;;;;;7.49;83.10;101669.53;6299761;28;20507;-78
2021/05/03 09:46:47;;;;;;;11.77;6.93;;;;;;;7.92;81.27;101669.28;6300443;28;20053;-78
2021/05/03 09:49:48;;;;;;;13.15;8.05;;;;;;;7.87;82.18;101658.94;6300102;28;20083;-79
2021/05/03 09:53:07;;;;;;;14.82;7.35;;;;;;;8.01;78.81;101657.69;6277362;28;20083;-79
2021/05/03 09:56:08;;;;;;;12.60;6.32;;;;;;;8.05;76.52;101657.56;6276172;28;20056;-79
2021/05/03 09:59:24;;;;;;;12.13;7.75;;;;;;;8.23;77.79;101647.47;6273360;28;20156;-79
2021/05/03 10:02:27;;;;;;;13.20;7.57;;;;;;;8.44;75.23;101643.38;6261043;28;20053;-79
2021/05/03 10:05:28;;;;;;;14.40;7.18;;;;;;;8.53;74.00;101638.72;6278281;28;20060;-79
2021/05/03 10:08:29;;;;;;;11.10;6.85;;;;;;;9.10;70.85;101634.31;6269023;28;20048;-77
2021/05/03 10:11:34;;;;;;;13.40;7.07;;;;;;;9.08;69.84;101629.13;6274415;28;20048;-76
2021/05/03 10:14:35;;;;;;;11.23;6.95;;;;;;;9.02;69.23;101626.69;6269363;28;20037;-77
2021/05/03 10:17:37;;;;;;;12.68;6.82;;;;;;;9.10;69.61;101626.44;6261987;28;20052;-77
2021/05/03 10:20:38;;;;;;;9.90;6.75;;;;;;;8.96;68.04;101616.41;6274726;28;20049;-77
2021/05/03 10:23:41;;;;;;;12.48;7.35;;;;;;;9.03;68.00;101619.69;6273192;28;20052;-80
2021/05/03 10:26:45;;;;;;;11.02;6.93;;;;;;;9.11;67.62;101613.28;6273970;28;20049;-77
2021/05/03 10:29:47;;;;;;;13.02;7.28;;;;;;;9.25;68.07;101606.72;6276284;28;20080;-83
2021/05/03 10:32:58;;;;;;;16.42;8.48;;;;;;;9.32;65.98;101610.84;6274251;28;20071;-80
2021/05/03 10:35:58;;;;;;;10.82;7.32;;;;;;;9.18;66.17;101595.59;6274369;28;20413;-79
2021/05/03 10:39:00;;;;;;;9.43;7.40;;;;;;;9.31;65.70;101602.13;6274578;28;20045;-79
2021/05/03 10:42:06;;;;;;;11.98;7.78;;;;;;;9.57;64.36;101601.19;6275514;28;20053;-79
2021/05/03 10:45:14;;;;;;;13.60;7.50;;;;;;;9.62;66.43;101590.53;6273132;28;20071;-78
2021/05/03 10:48:34;;;;;;;13.98;8.45;;;;;;;9.50;67.45;101585.75;6273077;28;20071;-78
2021/05/03 10:51:48;;;;;;;11.20;8.00;;;;;;;9.39;66.60;101581.72;6273545;28;20052;-78
2021/05/03 10:54:52;;;;;;;12.35;8.20;;;;;;;9.02;69.22;101589.97;6272608;28;20049;-78
2021/05/03 10:58:00;;;;;;;17.88;8.40;;;;;;;9.14;66.98;101589.59;6273063;28;20481;-77
2021/05/03 11:01:04;;;;;;;19.35;8.70;;;;;;;9.14;66.41;101592.22;6272895;28;20056;-78
2021/05/03 11:04:08;;;;;;;12.55;7.57;;;;;;;9.32;66.85;101587.25;6272271;28;20053;-78
2021/05/03 11:07:11;;;;;;;21.83;8.30;;;;;;;9.49;63.89;101594.50;6272780;28;20060;-80
2021/05/03 11:10:12;;;;;;;14.45;9.10;;;;;;;9.37;63.91;101582.69;6273614;28;20104;-79
2021/05/03 11:14:00;;;;;;;18.88;9.20;;;;;;;9.63;64.85;101585.25;6272573;28;20060;-80
2021/05/03 11:17:07;;;;;;;16.05;8.95;;;;;;;9.61;66.36;101575.72;6272835;28;20420;-82
2021/05/03 11:20:10;;;;;;;20.90;9.68;;;;;;;9.81;67.99;101562.75;6273563;28;20049;-79
2021/05/03 11:23:26;;;;;;;16.42;9.27;;;;;;;10.08;66.69;101558.22;6272646;28;20064;-79
2021/05/03 11:26:31;;;;;;;16.50;9.43;;;;;;;10.04;65.00;101556.63;6272854;28;20049;-78
2021/05/03 11:29:38;;;;;;;21.27;10.50;;;;;;;9.96;67.81;101549.94;6272718;28;20080;-78
2021/05/03 11:32:40;;;;;;;19.50;9.80;;;;;;;10.20;65.63;101548.13;6273228;28;20098;-78
2021/05/03 11:35:48;;;;;;;20.00;10.55;;;;;;;10.37;64.03;101537.88;6272352;28;20622;-79
2021/05/03 11:38:59;;;;;;;14.35;9.55;;;;;;;10.68;66.64;101534.84;6272804;28;20049;-79
2021/05/03 11:42:36;;;;;;;16.85;10.13;;;;;;;10.99;62.55;101534.44;6273045;28;20049;-80
2021/05/03 11:45:39;;;;;;;16.75;8.68;;;;;;;11.26;63.43;101531.50;6273825;28;20053;-80
2021/05/03 11:48:41;;;;;;;14.68;9.52;;;;;;;11.42;61.85;101535.19;6271875;28;20045;-79
2021/05/03 11:51:47;;;;;;;14.60;9.07;;;;;;;11.45;59.85;101527.19;6273095;28;20436;-79
2021/05/03 11:54:47;;;;;;;16.30;10.00;;;;;;;11.25;61.46;101517.50;6271975;28;20057;-79
2021/05/03 11:57:49;;;;;;;14.25;9.10;;;;;;;11.42;59.70;101516.78;6272113;28;20539;-79
2021/05/03 12:00:50;;;;;;;14.82;9.55;;;;;;;11.24;60.95;101520.22;6273280;28;20049;-79
2021/05/03 12:03:57;;;;;;;15.30;9.48;;;;;;;10.90;61.60;101516.38;6273755;28;20087;-80
2021/05/03 12:06:58;;;;;;;22.60;8.98;;;;;;;11.37;61.93;101514.34;6273337;28;20053;-80
2021/05/03 12:10:01;;;;;;;14.43;9.35;;;;;;;11.40;59.91;101508.97;6272204;28;20061;-80
2021/05/03 12:13:02;;;;;;;13.20;7.88;;;;;;;11.80;56.79;101493.09;6272988;28;20053;-80
2021/05/03 12:16:04;;;;;;;15.20;7.85;;;;;;;11.87;55.59;101491.94;6271921;28;20528;-80
2021/05/03 12:19:13;;;;;;;13.38;7.40;;;;;;;12.52;52.70;101484.41;6272399;28;20052;-80
2021/05/03 12:22:14;;;;;;;10.18;6.28;;;;;;;13.47;53.31;101475.13;6271919;28;20127;-80
2021/05/03 12:25:15;;;;;;;9.05;6.13;;;;;;;13.78;48.88;101465.53;6273691;28;20131;-81
2021/05/03 12:28:17;;;;;;;12.60;7.47;;;;;;;13.28;49.13;101474.41;6273411;28;20048;-82
2021/05/03 12:31:18;;;;;;;13.80;6.72;;;;;;;12.73;49.40;101472.78;6265960;28;20052;-82
2021/05/03 12:34:22;;;;;;;11.93;6.90;;;;;;;11.96;51.62;101470.44;6256741;28;20049;-83
2021/05/03 12:37:24;;;;;;;12.98;7.20;;;;;;;11.65;53.34;101465.72;6275206;28;20509;-80
2021/05/03 12:40:25;;;;;;;12.00;6.75;;;;;;;11.62;54.20;101461.44;6253075;28;20129;-80
2021/05/03 12:43:30;;;;;;;15.43;7.35;;;;;;;11.78;51.39;101453.69;6253771;28;20416;-80
2021/05/03 12:46:34;;;;;;;11.95;6.93;;;;;;;12.52;53.44;101445.72;6255650;28;20474;-79
2021/05/03 12:49:37;;;;;;;17.17;7.05;;;;;;;12.67;49.99;101438.81;6277290;28;20080;-83
2021/05/03 12:52:42;;;;;;;13.38;6.85;;;;;;;13.23;48.24;101429.78;6277166;28;20507;-78
2021/05/03 12:55:59;;;;;;;12.35;7.18;;;;;;;12.61;48.73;101442.63;6275896;28;20084;-79
2021/05/03 12:59:05;;;;;;;9.40;6.40;;;;;;;12.32;50.63;101433.53;6277144;28;20076;-80
2021/05/03 13:02:18;;;;;;;11.88;6.65;;;;;;;13.40;49.09;101427.09;6276125;28;20493;-80
2021/05/03 13:05:23;;;;;;;15.93;6.80;;;;;;;13.79;46.18;101417.88;6257961;28;20119;-78
2021/05/03 13:08:43;;;;;;;14.63;8.55;;;;;;;13.63;47.66;101417.03;6250769;28;20478;-78
2021/05/03 13:12:02;;;;;;;9.85;6.38;;;;;;;13.31;48.24;101414.38;6251449;28;20048;-76
2021/05/03 13:25:34;;;;;;;11.93;5.88;;;;;;;13.04;46.27;101390.28;6250451;28;20494;-77
2021/05/03 13:28:59;;;;;;;9.88;5.72;;;;;;;13.00;47.48;101385.25;6250582;28;20046;-76
2021/05/03 13:32:00;;;;;;;10.60;5.53;;;;;;;13.35;45.79;101386.00;6251037;28;20053;-80
2021/05/03 13:35:02;;;;;;;10.38;5.18;;;;;;;13.51;45.36;101388.66;6250400;28;20049;-79
2021/05/03 13:38:04;;;;;;;11.90;5.60;;;;;;;13.84;44.69;101380.63;6257238;28;20055;-79
2021/05/03 13:41:05;;;;;;;10.90;5.60;;;;;;;13.38;43.38;101377.91;6275742;28;20091;-80
2021/05/03 13:44:07;;;;;;;7.50;5.50;;;;;;;13.17;44.70;101370.22;6275871;28;20411;-77
2021/05/03 13:47:09;;;;;;;11.27;5.57;;;;;;;12.97;45.26;101369.56;6274766;28;20049;-78
2021/05/03 13:50:12;;;;;;;10.30;5.50;;;;;;;13.08;44.50;101369.84;6275576;28;20041;-77
2021/05/03 13:53:13;;;;;;;10.80;5.90;;;;;;;12.99;45.83;101391.44;6275317;28;20045;-78
2021/05/03 13:56:14;;;;;;;13.65;7.72;;;;;;;12.38;57.94;101409.50;6274244;28;20122;-78
2021/05/03 13:59:15;;;;;;;10.68;7.85;;;;;;;11.39;65.21;101407.22;6274678;28;20135;-77
2021/05/03 14:02:16;;;;;;;14.25;7.07;;;;;;;11.12;67.84;101393.53;6274450;28;20132;-78
2021/05/03 14:05:17;;;;;;;9.50;5.68;;;;;;;10.60;67.47;101408.16;6274550;28;20049;-78
2021/05/03 14:08:19;;;;;;;5.28;4.05;;;;;;;11.00;68.92;101398.53;6274761;28;20044;-77
2021/05/03 14:11:20;;;;;;;6.15;4.05;;;;;;;11.22;66.43;101395.75;6274178;28;20052;-77
2021/05/03 14:14:21;;;;;;;4.43;3.55;;;;;;;11.24;64.28;101388.66;6281131;28;20057;-77
2021/05/03 14:17:22;;;;;;;8.75;5.70;;;;;;;10.60;67.24;101395.00;6288300;28;20044;-77
2021/05/03 14:20:23;;;;;;;7.90;4.45;;;;;;;10.56;69.34;101396.06;6298806;28;20052;-76
2021/05/03 14:23:25;;;;;;;10.50;4.90;;;;;;;10.32;70.76;101397.94;6297956;28;20060;-77
2021/05/03 14:26:27;;;;;;;5.80;4.25;;;;;;;10.41;71.53;101401.03;6298102;28;20053;-77
2021/05/03 14:29:35;;;;;;;10.52;5.03;;;;;;;10.61;70.23;101387.03;6298354;28;20053;-77
2021/05/03 14:32:40;;;;;;;10.48;5.97;;;;;;;10.34;75.23;101389.06;6294318;28;20580;-77